Time;durP1;ratioP1;P1;durP2;ratioP2;P2;SDS_P1;SDS_P2;PMS_P1;PMS_P2;Temp;Humidity;BMP_temperature;BMP_pressure;BME280_temperature;BME280_humidity;BME280_pressure;Samples;Min_cycle;Max_cycle;Signal;HPM_P1;HPM_P2
2022/11/09 00:01:20;;;;;;;21.35;3.00;;;11.90;99.90;;;;;;5077477;28;20040;-74
2022/11/09 00:03:46;;;;;;;21.33;3.33;;;12.00;99.90;;;;;;5065049;28;20031;-74
2022/11/09 00:06:12;;;;;;;22.55;3.80;;;12.10;99.90;;;;;;5065877;28;20115;-74
2022/11/09 00:08:39;;;;;;;23.55;3.40;;;12.20;99.90;;;;;;5061623;28;20725;-74
2022/11/09 00:11:07;;;;;;;25.20;3.35;;;12.30;99.90;;;;;;5064389;28;20482;-74
2022/11/09 00:13:37;;;;;;;20.40;2.60;;;12.30;99.90;;;;;;5064762;28;20032;-74
2022/11/09 00:16:04;;;;;;;18.52;2.60;;;12.40;99.90;;;;;;5063917;28;20051;-74
2022/11/09 00:18:30;;;;;;;18.77;3.10;;;12.30;99.90;;;;;;5057199;28;20083;-73
2022/11/09 00:20:56;;;;;;;17.80;2.47;;;12.30;99.90;;;;;;5065060;28;20079;-74
2022/11/09 00:23:21;;;;;;;17.85;3.05;;;12.30;99.90;;;;;;5045091;28;20033;-73
2022/11/09 00:25:47;;;;;;;27.85;3.55;;;12.30;99.90;;;;;;5065770;28;20142;-73
2022/11/09 00:28:13;;;;;;;18.77;2.38;;;12.30;99.90;;;;;;5065384;28;20043;-75
2022/11/09 00:30:40;;;;;;;22.38;2.60;;;12.30;99.90;;;;;;5047323;28;20082;-74
2022/11/09 00:33:05;;;;;;;21.92;2.80;;;12.20;99.90;;;;;;5064812;28;20028;-75
2022/11/09 00:35:31;;;;;;;14.48;1.80;;;12.10;99.90;;;;;;5063170;28;20029;-74
2022/11/09 00:37:57;;;;;;;14.68;2.22;;;12.10;99.90;;;;;;5064248;28;20078;-74
2022/11/09 00:40:23;;;;;;;19.05;2.08;;;12.00;99.90;;;;;;5064786;28;20090;-73
2022/11/09 00:42:48;;;;;;;17.90;2.17;;;12.00;99.90;;;;;;5064610;28;20131;-75
2022/11/09 00:45:14;;;;;;;14.68;2.17;;;11.90;99.90;;;;;;5068610;28;20036;-74
2022/11/09 00:47:39;;;;;;;10.35;1.60;;;11.90;99.90;;;;;;5066055;28;20039;-74
2022/11/09 00:50:05;;;;;;;13.40;1.73;;;11.90;99.90;;;;;;5063447;28;20036;-74
2022/11/09 00:52:31;;;;;;;13.18;1.85;;;11.90;99.90;;;;;;5069460;28;20072;-74
2022/11/09 00:54:57;;;;;;;13.32;2.17;;;11.90;99.90;;;;;;5065261;28;20056;-73
2022/11/09 00:57:22;;;;;;;14.00;1.80;;;12.00;99.90;;;;;;5051169;28;20029;-73
2022/11/09 00:59:48;;;;;;;19.58;2.30;;;12.00;99.90;;;;;;5068820;28;20024;-73
2022/11/09 01:02:13;;;;;;;14.43;2.25;;;12.10;99.90;;;;;;5067718;28;20028;-72
2022/11/09 01:04:39;;;;;;;16.45;2.10;;;12.00;99.90;;;;;;5067512;28;20029;-72
2022/11/09 01:07:06;;;;;;;14.50;2.03;;;12.10;99.90;;;;;;5050404;28;20062;-74
2022/11/09 01:09:32;;;;;;;18.88;2.17;;;12.20;99.90;;;;;;5063714;28;20068;-73
2022/11/09 01:11:58;;;;;;;19.25;2.88;;;12.20;99.90;;;;;;5067918;28;20059;-73
2022/11/09 01:14:23;;;;;;;15.93;2.60;;;12.20;99.90;;;;;;5061960;28;20109;-72
2022/11/09 01:16:51;;;;;;;14.75;1.85;;;12.30;99.90;;;;;;5067753;28;20036;-74
2022/11/09 01:19:16;;;;;;;16.48;2.15;;;12.40;99.90;;;;;;5067884;28;20039;-74
2022/11/09 01:21:42;;;;;;;17.88;2.25;;;12.40;99.90;;;;;;5069220;28;20040;-74
2022/11/09 01:24:08;;;;;;;14.63;2.17;;;12.40;99.90;;;;;;5069623;28;20036;-73
2022/11/09 01:26:34;;;;;;;11.82;1.80;;;12.30;99.90;;;;;;5069476;28;20028;-72
2022/11/09 01:29:00;;;;;;;8.57;1.17;;;12.20;99.90;;;;;;5069191;28;20032;-73
2022/11/09 01:31:25;;;;;;;11.85;1.73;;;12.20;99.90;;;;;;5043754;28;20653;-74
2022/11/09 01:33:51;;;;;;;12.23;1.45;;;12.10;99.90;;;;;;5051038;28;20033;-73
2022/11/09 01:36:19;;;;;;;16.10;1.95;;;12.00;99.90;;;;;;5068049;28;20040;-72
2022/11/09 01:38:45;;;;;;;22.33;2.45;;;12.00;99.90;;;;;;5068562;28;20033;-73
2022/11/09 01:41:14;;;;;;;15.15;2.10;;;12.00;99.90;;;;;;5064842;28;20078;-73
2022/11/09 01:43:40;;;;;;;17.48;1.98;;;12.00;99.90;;;;;;5066283;28;20031;-74
2022/11/09 01:46:21;;;;;;;14.20;1.95;;;12.00;99.90;;;;;;5068058;28;20028;-73
2022/11/09 01:48:57;;;;;;;16.88;2.25;;;12.00;99.90;;;;;;5067315;28;20032;-73
2022/11/09 01:51:44;;;;;;;19.08;2.35;;;12.10;99.90;;;;;;5059224;28;20043;-74
2022/11/09 01:54:24;;;;;;;16.63;2.72;;;12.10;99.90;;;;;;5068075;28;20040;-74
2022/11/09 01:56:55;;;;;;;18.33;2.75;;;12.20;99.90;;;;;;5068010;28;20028;-74
2022/11/09 01:59:25;;;;;;;16.15;2.30;;;12.20;99.90;;;;;;5068402;28;20033;-72
2022/11/09 02:01:52;;;;;;;18.63;2.60;;;12.20;99.90;;;;;;5047266;28;20033;-72
2022/11/09 02:04:23;;;;;;;18.55;2.83;;;12.30;99.90;;;;;;5067751;28;20032;-72
2022/11/09 02:06:49;;;;;;;20.83;2.70;;;12.30;99.90;;;;;;5067604;28;20039;-72
2022/11/09 02:09:23;;;;;;;22.88;2.67;;;12.40;99.90;;;;;;5067009;28;20036;-73
2022/11/09 02:11:49;;;;;;;17.90;2.40;;;12.40;99.90;;;;;;5068605;28;20513;-73
2022/11/09 02:14:15;;;;;;;17.83;2.45;;;12.50;99.90;;;;;;5049598;28;20033;-73
2022/11/09 02:16:41;;;;;;;20.08;2.90;;;12.40;99.90;;;;;;5067359;28;20064;-73
2022/11/09 02:19:07;;;;;;;26.10;3.63;;;12.50;99.90;;;;;;5067187;28;20029;-73
2022/11/09 02:21:33;;;;;;;21.52;4.28;;;12.50;99.90;;;;;;5050385;28;20367;-72
2022/11/09 02:23:59;;;;;;;19.75;3.25;;;12.60;99.90;;;;;;5047170;28;20071;-73
2022/11/09 02:26:40;;;;;;;18.52;3.03;;;12.60;99.90;;;;;;5067017;28;20039;-72
2022/11/09 02:29:08;;;;;;;18.13;2.80;;;12.60;99.90;;;;;;5067566;28;20055;-73
2022/11/09 02:31:38;;;;;;;19.25;3.05;;;12.70;99.90;;;;;;5048839;28;20046;-73
2022/11/09 02:34:08;;;;;;;19.20;2.58;;;12.70;99.90;;;;;;5048140;28;20032;-73
2022/11/09 02:36:34;;;;;;;;;;;12.60;99.90;;;;;;5067159;28;20048;-73
2022/11/09 02:39:00;;;;;;;16.77;2.67;;;12.60;99.90;;;;;;5066460;28;20322;-73
2022/11/09 02:41:29;;;;;;;22.40;2.83;;;12.60;99.90;;;;;;5047975;28;20143;-72
2022/11/09 02:43:55;;;;;;;28.45;3.70;;;12.60;99.90;;;;;;5066414;28;20079;-74
2022/11/09 02:46:24;;;;;;;18.10;2.78;;;12.50;99.90;;;;;;5066899;28;20225;-74
2022/11/09 02:48:49;;;;;;;16.73;2.33;;;12.50;99.90;;;;;;5067525;28;20079;-73
2022/11/09 02:51:15;;;;;;;12.52;2.00;;;12.50;99.90;;;;;;5076406;28;20561;-73
2022/11/09 02:53:40;;;;;;;13.88;2.08;;;12.40;99.90;;;;;;5063236;28;20082;-73
2022/11/09 02:56:06;;;;;;;22.48;3.33;;;12.40;99.90;;;;;;5067255;28;20375;-74
2022/11/09 02:58:32;;;;;;;21.25;2.28;;;12.30;99.90;;;;;;5048526;28;20040;-74
2022/11/09 03:00:57;;;;;;;18.63;2.33;;;12.30;99.90;;;;;;5048589;28;20059;-73
2022/11/09 03:03:23;;;;;;;16.33;1.85;;;12.30;99.90;;;;;;5073556;28;20039;-74
2022/11/09 03:05:48;;;;;;;17.02;2.65;;;12.30;99.90;;;;;;5081616;28;20169;-74
2022/11/09 03:08:14;;;;;;;20.08;2.25;;;12.30;99.90;;;;;;5066463;28;20032;-74
2022/11/09 03:10:39;;;;;;;13.00;1.88;;;12.40;99.90;;;;;;5066442;28;20520;-74
2022/11/09 03:13:05;;;;;;;11.88;1.98;;;12.30;99.90;;;;;;5066503;28;20036;-73
2022/11/09 03:15:31;;;;;;;15.77;2.03;;;12.40;99.90;;;;;;5066594;28;20043;-72
2022/11/09 03:17:56;;;;;;;19.45;2.63;;;12.30;99.90;;;;;;5077749;28;20116;-73
2022/11/09 03:20:22;;;;;;;20.95;2.38;;;12.30;99.90;;;;;;5067442;28;20047;-74
2022/11/09 03:22:47;;;;;;;11.38;2.35;;;12.30;99.90;;;;;;5066359;28;20029;-73
2022/11/09 03:25:13;;;;;;;17.30;2.60;;;12.40;99.90;;;;;;5065474;28;20040;-73
2022/11/09 03:27:39;;;;;;;16.08;2.50;;;12.40;99.90;;;;;;5066168;28;20125;-72
2022/11/09 03:30:05;;;;;;;20.20;2.17;;;12.30;99.90;;;;;;5066346;28;20505;-73
2022/11/09 03:32:31;;;;;;;12.25;2.20;;;12.40;99.90;;;;;;5048718;28;20032;-73
2022/11/09 03:34:56;;;;;;;18.33;2.50;;;12.40;99.90;;;;;;5066373;28;20040;-72
2022/11/09 03:37:22;;;;;;;17.58;2.30;;;12.40;99.90;;;;;;5066104;28;20036;-74
2022/11/09 03:39:47;;;;;;;15.23;2.20;;;12.40;99.90;;;;;;5066284;28;20028;-73
2022/11/09 03:42:13;;;;;;;16.95;2.13;;;12.40;99.90;;;;;;5065173;28;20440;-73
2022/11/09 03:44:38;;;;;;;14.32;2.13;;;12.40;99.90;;;;;;5066791;28;20079;-73
2022/11/09 03:47:04;;;;;;;17.77;2.67;;;12.40;99.90;;;;;;5065932;28;20064;-73
2022/11/09 03:49:30;;;;;;;17.58;2.65;;;12.50;99.90;;;;;;5065564;28;20028;-74
2022/11/09 03:51:55;;;;;;;18.50;1.98;;;12.60;99.90;;;;;;5046619;28;20036;-71
2022/11/09 03:54:21;;;;;;;14.90;2.28;;;12.60;99.90;;;;;;5063727;28;20070;-74
2022/11/09 03:56:46;;;;;;;15.65;2.50;;;12.60;99.90;;;;;;5080532;28;20031;-72
2022/11/09 03:59:12;;;;;;;14.80;1.92;;;12.50;99.90;;;;;;5066229;28;20438;-71
2022/11/09 04:01:37;;;;;;;14.05;2.65;;;12.60;99.90;;;;;;5065931;28;20036;-71
2022/11/09 04:04:04;;;;;;;16.67;2.53;;;12.50;99.90;;;;;;5066012;28;20053;-72
2022/11/09 04:06:30;;;;;;;21.95;2.78;;;12.50;99.90;;;;;;5053874;28;20110;-73
2022/11/09 04:08:55;;;;;;;9.48;1.30;;;12.40;99.90;;;;;;5047645;28;20047;-74
2022/11/09 04:11:21;;;;;;;3.95;0.70;;;12.20;99.90;;;;;;5065860;28;20128;-74
2022/11/09 04:13:46;;;;;;;10.93;1.20;;;12.00;99.90;;;;;;5043748;28;20033;-73
2022/11/09 04:16:12;;;;;;;8.07;1.10;;;11.80;99.90;;;;;;5046691;28;20115;-73
2022/11/09 04:18:37;;;;;;;11.07;1.15;;;11.70;99.90;;;;;;5042082;28;20406;-75
2022/11/09 04:21:03;;;;;;;10.43;1.30;;;11.60;99.90;;;;;;5062639;28;20471;-74
2022/11/09 04:23:29;;;;;;;9.98;1.67;;;11.60;99.90;;;;;;5046814;28;20119;-71
2022/11/09 04:25:58;;;;;;;13.77;1.92;;;11.70;99.90;;;;;;5052663;28;20035;-75
2022/11/09 04:28:23;;;;;;;9.43;1.80;;;11.70;99.90;;;;;;5064688;28;20583;-73
2022/11/09 04:30:49;;;;;;;14.80;2.28;;;11.70;99.90;;;;;;5064943;28;20040;-75
2022/11/09 04:33:15;;;;;;;14.18;2.20;;;11.80;99.90;;;;;;5065694;28;20036;-74
2022/11/09 04:35:41;;;;;;;15.55;2.13;;;11.80;99.90;;;;;;5058907;28;20056;-75
2022/11/09 04:38:10;;;;;;;17.42;1.95;;;11.80;99.90;;;;;;5057516;28;20079;-75
2022/11/09 04:40:36;;;;;;;22.60;2.30;;;11.80;99.90;;;;;;5063959;28;20064;-74
2022/11/09 04:43:04;;;;;;;8.45;1.42;;;11.80;99.90;;;;;;5044538;28;20064;-76
2022/11/09 04:45:32;;;;;;;17.40;2.17;;;11.80;99.90;;;;;;5055620;28;20078;-74
2022/11/09 04:47:59;;;;;;;16.23;1.83;;;11.80;99.90;;;;;;5065364;28;20544;-74
2022/11/09 04:50:26;;;;;;;14.45;1.85;;;11.80;99.90;;;;;;5045983;28;20032;-74
2022/11/09 04:52:51;;;;;;;16.30;2.50;;;11.90;99.90;;;;;;5064953;28;20505;-73
2022/11/09 04:55:17;;;;;;;10.45;1.17;;;11.90;99.90;;;;;;5064793;28;20033;-75
2022/11/09 04:57:43;;;;;;;15.45;1.85;;;12.00;99.90;;;;;;5055781;28;20032;-74
2022/11/09 05:00:09;;;;;;;10.82;1.40;;;12.00;99.90;;;;;;5064019;28;20107;-75
2022/11/09 05:02:34;;;;;;;11.82;1.80;;;12.00;99.90;;;;;;5036993;28;20065;-74
2022/11/09 05:05:00;;;;;;;20.02;2.80;;;12.00;99.90;;;;;;5065123;28;20080;-73
2022/11/09 05:07:25;;;;;;;16.52;2.00;;;12.00;99.90;;;;;;5047093;28;20098;-74
2022/11/09 05:09:51;;;;;;;13.23;2.30;;;12.10;99.90;;;;;;5047633;28;20037;-74
2022/11/09 05:12:17;;;;;;;15.25;1.88;;;12.10;99.90;;;;;;5066260;28;20048;-74
2022/11/09 05:14:42;;;;;;;21.35;2.58;;;12.10;99.90;;;;;;5066498;28;20028;-75
2022/11/09 05:17:08;;;;;;;17.58;2.03;;;12.10;99.90;;;;;;5066053;28;20040;-75
2022/11/09 05:19:34;;;;;;;25.83;2.95;;;12.10;99.90;;;;;;5065941;28;20075;-75
2022/11/09 05:24:44;;;;;;;19.48;2.25;;;12.20;99.90;;;;;;5065521;28;20047;-74
2022/11/09 05:27:09;;;;;;;15.95;1.80;;;12.20;99.90;;;;;;5065755;28;20040;-74
2022/11/09 05:29:35;;;;;;;12.10;1.60;;;12.10;99.90;;;;;;5066347;28;20029;-74
2022/11/09 05:32:01;;;;;;;14.43;2.20;;;12.10;99.90;;;;;;5046848;28;20086;-74
2022/11/09 05:34:26;;;;;;;12.50;2.05;;;12.00;99.90;;;;;;5064073;28;20028;-74
2022/11/09 05:36:52;;;;;;;13.82;1.65;;;12.10;99.90;;;;;;5067566;28;20052;-75
2022/11/09 05:39:17;;;;;;;10.68;1.52;;;12.00;99.90;;;;;;5068995;28;20047;-73
2022/11/09 05:41:43;;;;;;;16.55;1.77;;;12.00;99.90;;;;;;5067905;28;20031;-74
2022/11/09 05:44:08;;;;;;;19.90;2.25;;;12.00;99.90;;;;;;5047829;28;20515;-73
2022/11/09 05:46:34;;;;;;;11.85;1.70;;;12.00;99.90;;;;;;5068337;28;20039;-74
2022/11/09 05:49:00;;;;;;;19.35;2.13;;;12.10;99.90;;;;;;5064409;28;20043;-74
2022/11/09 05:51:25;;;;;;;22.48;2.17;;;12.10;99.90;;;;;;5064992;28;20429;-74
2022/11/09 05:53:51;;;;;;;16.35;2.15;;;12.20;99.90;;;;;;5068270;28;20040;-74
2022/11/09 05:56:16;;;;;;;12.05;1.45;;;12.30;99.90;;;;;;5063245;28;20056;-73
2022/11/09 05:58:43;;;;;;;10.00;1.10;;;12.20;99.90;;;;;;5068528;28;20035;-73
2022/11/09 06:01:12;;;;;;;10.48;1.30;;;11.80;99.90;;;;;;5061170;28;20044;-73
2022/11/09 06:03:39;;;;;;;10.57;1.55;;;11.40;99.90;;;;;;5050229;28;20478;-73
2022/11/09 06:06:06;;;;;;;11.95;1.33;;;11.20;99.90;;;;;;5067792;28;20429;-73
2022/11/09 06:08:32;;;;;;;10.70;2.65;;;11.10;99.90;;;;;;5066809;28;20985;-73
2022/11/09 06:11:03;;;;;;;11.38;1.40;;;11.00;99.90;;;;;;5068153;28;20483;-73
2022/11/09 06:13:29;;;;;;;11.88;1.35;;;11.00;99.90;;;;;;5065600;28;20044;-73
2022/11/09 06:15:56;;;;;;;11.27;1.02;;;10.90;99.90;;;;;;5049431;28;20020;-73
2022/11/09 06:18:27;;;;;;;8.57;1.08;;;10.90;99.90;;;;;;5067354;28;20028;-73
2022/11/09 06:20:54;;;;;;;7.97;1.02;;;10.90;99.90;;;;;;5068427;28;20035;-74
2022/11/09 06:23:24;;;;;;;11.82;1.02;;;10.90;99.90;;;;;;5064702;28;20032;-73
2022/11/09 06:25:57;;;;;;;9.98;1.30;;;10.90;99.90;;;;;;5045804;28;20460;-73
2022/11/09 06:28:23;;;;;;;9.43;1.27;;;10.90;99.90;;;;;;5046648;28;20060;-73
2022/11/09 06:30:48;;;;;;;10.32;1.58;;;10.90;99.90;;;;;;5047558;28;20028;-73
2022/11/09 06:33:14;;;;;;;12.93;1.10;;;10.90;99.90;;;;;;5067815;28;20104;-73
2022/11/09 06:35:39;;;;;;;13.05;1.60;;;11.00;99.90;;;;;;5068188;28;20095;-74
2022/11/09 06:38:05;;;;;;;12.88;2.35;;;11.00;99.90;;;;;;5049136;28;20195;-73
2022/11/09 06:40:32;;;;;;;19.30;1.60;;;11.10;99.90;;;;;;5065892;28;20032;-73
2022/11/09 06:42:59;;;;;;;22.95;2.10;;;11.10;99.90;;;;;;5067582;28;20032;-73
2022/11/09 06:45:26;;;;;;;17.55;1.83;;;11.10;99.90;;;;;;5069122;28;20889;-74
2022/11/09 06:48:00;;;;;;;15.70;2.08;;;11.20;99.90;;;;;;5067182;28;20035;-73
2022/11/09 06:50:27;;;;;;;21.08;1.90;;;11.20;99.90;;;;;;5066871;28;20016;-73
2022/11/09 06:52:57;;;;;;;22.33;1.90;;;11.20;99.90;;;;;;5067342;28;20032;-74
2022/11/09 06:55:23;;;;;;;19.63;1.92;;;11.20;99.90;;;;;;5059915;28;20071;-73
2022/11/09 06:57:49;;;;;;;16.02;2.30;;;11.30;99.90;;;;;;5056927;28;20043;-73
2022/11/09 07:00:15;;;;;;;20.63;1.98;;;11.30;99.90;;;;;;5047351;28;20036;-74
2022/11/09 07:02:41;;;;;;;14.27;1.48;;;11.40;99.90;;;;;;5065657;28;20094;-74
2022/11/09 07:05:07;;;;;;;16.63;2.10;;;11.30;99.90;;;;;;5066138;28;20086;-73
2022/11/09 07:07:32;;;;;;;12.18;1.40;;;11.40;99.90;;;;;;5066972;28;20032;-74
2022/11/09 07:09:58;;;;;;;13.38;2.38;;;11.40;99.90;;;;;;5067365;28;20055;-74
2022/11/09 07:12:24;;;;;;;13.40;1.73;;;11.40;99.90;;;;;;5066269;28;20143;-73
2022/11/09 07:14:49;;;;;;;5.53;0.93;;;11.50;99.90;;;;;;5063495;28;20040;-72
2022/11/09 07:17:15;;;;;;;8.68;1.23;;;11.20;99.90;;;;;;5048715;28;20032;-73
2022/11/09 07:19:40;;;;;;;7.05;0.90;;;11.20;99.90;;;;;;5059185;28;20028;-72
2022/11/09 07:22:06;;;;;;;5.18;0.57;;;11.10;99.90;;;;;;5045757;28;20284;-73
2022/11/09 07:24:32;;;;;;;8.93;1.00;;;11.00;99.90;;;;;;5049114;28;20028;-73
2022/11/09 07:26:57;;;;;;;7.63;0.85;;;10.90;99.90;;;;;;5079804;28;20036;-73
2022/11/09 07:29:23;;;;;;;4.97;0.70;;;10.80;99.90;;;;;;5067217;28;20040;-73
2022/11/09 07:31:48;;;;;;;5.18;0.60;;;10.70;99.90;;;;;;5057189;28;20478;-73
2022/11/09 07:34:14;;;;;;;4.53;0.50;;;10.70;99.90;;;;;;5066196;28;20041;-73
2022/11/09 07:36:40;;;;;;;3.25;0.47;;;10.70;99.90;;;;;;5067154;28;20105;-73
2022/11/09 07:39:05;;;;;;;2.55;0.50;;;10.70;99.90;;;;;;5066696;28;20115;-73
2022/11/09 07:41:31;;;;;;;4.05;0.40;;;10.70;99.90;;;;;;5064283;28;20122;-74
2022/11/09 07:43:57;;;;;;;4.50;0.70;;;10.80;99.90;;;;;;5067252;28;20476;-73
2022/11/09 07:46:23;;;;;;;3.75;0.70;;;10.80;99.90;;;;;;5067437;28;20033;-73
2022/11/09 07:48:48;;;;;;;7.07;0.75;;;10.80;99.90;;;;;;5067351;28;20074;-73
2022/11/09 07:51:14;;;;;;;4.47;0.73;;;10.70;99.90;;;;;;5067295;28;20040;-73
2022/11/09 07:53:39;;;;;;;5.43;0.98;;;10.80;99.90;;;;;;5068356;28;20040;-73
2022/11/09 07:56:05;;;;;;;5.15;0.60;;;10.80;99.90;;;;;;5063591;28;20036;-73
2022/11/09 07:58:31;;;;;;;8.85;1.30;;;10.90;99.90;;;;;;5065724;28;20028;-73
2022/11/09 08:00:57;;;;;;;5.60;0.95;;;10.90;99.90;;;;;;5061099;28;20675;-73
2022/11/09 08:03:24;;;;;;;7.25;0.80;;;10.90;99.90;;;;;;5061850;28;20036;-73
2022/11/09 08:05:50;;;;;;;9.50;1.05;;;10.90;99.90;;;;;;5063493;28;20067;-73
2022/11/09 08:08:16;;;;;;;11.02;1.15;;;10.80;99.90;;;;;;5042286;28;20398;-73
2022/11/09 08:10:44;;;;;;;10.35;1.05;;;10.90;99.90;;;;;;5060773;28;20044;-72
2022/11/09 08:13:12;;;;;;;10.00;1.60;;;10.90;99.90;;;;;;5044626;28;20729;-73
2022/11/09 08:15:39;;;;;;;10.52;1.85;;;10.90;99.90;;;;;;5052905;28;20111;-73
2022/11/09 08:18:07;;;;;;;13.18;1.60;;;10.90;99.90;;;;;;5060477;28;20035;-73
2022/11/09 08:20:33;;;;;;;11.95;1.63;;;11.20;99.90;;;;;;5061267;28;20120;-73
2022/11/09 08:22:59;;;;;;;13.50;1.63;;;11.30;99.90;;;;;;5075800;28;20115;-73
2022/11/09 08:25:24;;;;;;;12.43;2.00;;;11.30;99.90;;;;;;5047046;28;20647;-73
2022/11/09 08:27:50;;;;;;;17.92;2.03;;;11.30;99.90;;;;;;5065503;28;20115;-73
2022/11/09 08:30:19;;;;;;;12.60;1.77;;;11.30;99.90;;;;;;5064099;28;20032;-73
2022/11/09 08:32:45;;;;;;;15.70;1.67;;;11.30;99.90;;;;;;5062477;28;20036;-74
2022/11/09 08:35:16;;;;;;;17.73;1.90;;;11.60;99.90;;;;;;5047634;28;20032;-73
2022/11/09 08:37:45;;;;;;;11.63;1.52;;;12.00;99.90;;;;;;5048246;28;20059;-73
2022/11/09 08:40:12;;;;;;;9.68;1.30;;;12.50;99.90;;;;;;5075638;28;20032;-73
2022/11/09 08:42:37;;;;;;;12.70;1.30;;;12.80;99.90;;;;;;5046253;28;20042;-73
2022/11/09 08:45:04;;;;;;;7.38;1.02;;;12.90;99.90;;;;;;5065407;28;20033;-73
2022/11/09 08:47:30;;;;;;;10.48;1.23;;;12.90;99.90;;;;;;5047418;28;20050;-72
2022/11/09 08:49:55;;;;;;;6.13;0.85;;;13.20;99.90;;;;;;5032036;28;20648;-73
2022/11/09 08:52:21;;;;;;;7.65;0.93;;;13.10;99.90;;;;;;5064794;28;20028;-72
2022/11/09 08:54:46;;;;;;;8.02;1.00;;;13.30;99.90;;;;;;5047284;28;20040;-73
2022/11/09 08:57:12;;;;;;;8.25;1.05;;;13.40;99.90;;;;;;5046349;28;20028;-73
2022/11/09 08:59:38;;;;;;;6.30;0.85;;;13.40;99.90;;;;;;5065049;28;20119;-73
2022/11/09 09:02:04;;;;;;;8.15;0.88;;;13.30;99.90;;;;;;5046959;28;20043;-73
2022/11/09 09:04:30;;;;;;;4.63;1.00;;;13.40;99.90;;;;;;5046657;28;20163;-74
2022/11/09 09:06:56;;;;;;;8.80;1.00;;;13.20;99.90;;;;;;5066008;28;20115;-73
2022/11/09 09:09:21;;;;;;;7.80;0.95;;;13.40;99.90;;;;;;5065079;28;20035;-73
2022/11/09 09:11:47;;;;;;;4.57;0.80;;;13.60;99.90;;;;;;5067071;28;20036;-72
2022/11/09 09:14:14;;;;;;;8.05;1.30;;;13.30;99.90;;;;;;5045147;28;20122;-73
2022/11/09 09:16:40;;;;;;;9.32;1.10;;;13.40;99.90;;;;;;5057149;28;20492;-72
2022/11/09 09:19:06;;;;;;;5.53;0.90;;;13.20;99.90;;;;;;5067962;28;20033;-74
2022/11/09 09:21:32;;;;;;;4.55;0.82;;;13.30;99.90;;;;;;5068446;28;20724;-72
2022/11/09 09:23:57;;;;;;;6.95;1.00;;;13.20;99.90;;;;;;5069115;28;20028;-74
2022/11/09 09:26:23;;;;;;;9.18;1.35;;;13.20;99.90;;;;;;5069809;28;20055;-72
2022/11/09 09:28:50;;;;;;;8.77;1.05;;;13.20;99.90;;;;;;5068753;28;20040;-73
2022/11/09 09:31:15;;;;;;;5.03;0.85;;;13.40;99.90;;;;;;5068014;28;20072;-72
2022/11/09 09:33:41;;;;;;;6.72;0.95;;;13.60;99.90;;;;;;5050688;28;20086;-73
2022/11/09 09:36:08;;;;;;;6.07;0.98;;;13.90;99.90;;;;;;5068402;28;20036;-72
2022/11/09 09:38:34;;;;;;;4.38;0.88;;;13.90;99.90;;;;;;5049443;28;20071;-73
2022/11/09 09:41:02;;;;;;;8.43;1.02;;;13.50;99.90;;;;;;5075715;28;20068;-72
2022/11/09 09:43:39;;;;;;;5.32;0.90;;;13.50;99.90;;;;;;5071187;28;20036;-73
2022/11/09 09:46:15;;;;;;;5.85;0.93;;;13.90;99.90;;;;;;5089360;28;20071;-73
2022/11/09 09:48:47;;;;;;;8.35;1.05;;;14.50;99.90;;;;;;5075793;28;20078;-73
2022/11/09 09:51:21;;;;;;;5.78;0.80;;;14.60;99.90;;;;;;5068920;28;20479;-74
2022/11/09 09:53:58;;;;;;;6.28;0.93;;;14.20;99.90;;;;;;5050622;28;20044;-73
2022/11/09 09:56:29;;;;;;;5.72;0.73;;;13.90;99.90;;;;;;5076715;28;20736;-73
2022/11/09 09:59:04;;;;;;;6.57;0.93;;;13.70;99.90;;;;;;5073603;28;20029;-72
2022/11/09 10:01:37;;;;;;;4.55;0.82;;;13.50;99.90;;;;;;5068516;28;20028;-72
2022/11/09 10:04:16;;;;;;;8.20;0.90;;;13.60;99.90;;;;;;5051045;28;20036;-75
2022/11/09 10:06:57;;;;;;;8.88;1.13;;;13.50;99.90;;;;;;5068822;28;20024;-72
2022/11/09 10:09:38;;;;;;;3.60;0.80;;;13.50;99.90;;;;;;5068874;28;20089;-75
2022/11/09 10:12:09;;;;;;;5.30;1.00;;;13.60;99.90;;;;;;5068666;28;20036;-74
2022/11/09 10:15:13;;;;;;;6.40;0.80;;;13.70;99.90;;;;;;5067869;28;20040;-74
2022/11/09 10:18:03;;;;;;;9.25;0.95;;;13.60;99.90;;;;;;4985840;28;20038;-73
2022/11/09 10:20:45;;;;;;;5.53;0.80;;;13.50;99.90;;;;;;4986314;28;20404;-73
2022/11/09 10:23:33;;;;;;;5.90;0.75;;;13.30;99.90;;;;;;5031327;28;20175;-73
2022/11/09 10:26:09;;;;;;;8.27;1.20;;;13.50;99.90;;;;;;5048753;28;20036;-74
2022/11/09 10:28:40;;;;;;;6.35;1.10;;;13.50;99.90;;;;;;5039342;28;20029;-73
2022/11/09 10:31:18;;;;;;;7.60;1.20;;;13.60;99.90;;;;;;5047853;28;20488;-74
2022/11/09 10:33:51;;;;;;;7.53;1.02;;;13.70;99.90;;;;;;5077679;28;20077;-73
2022/11/09 10:36:44;;;;;;;8.18;1.00;;;13.40;99.90;;;;;;5069728;28;20790;-74
2022/11/09 10:39:13;;;;;;;8.02;0.98;;;13.30;99.90;;;;;;5070842;28;20034;-74
2022/11/09 10:41:41;;;;;;;7.85;1.35;;;13.40;99.90;;;;;;5067756;28;20064;-73
2022/11/09 10:44:15;;;;;;;6.03;0.65;;;13.60;99.90;;;;;;5050150;28;20131;-74
2022/11/09 10:47:01;;;;;;;6.50;1.00;;;13.60;99.90;;;;;;5068203;28;20025;-74
2022/11/09 10:49:26;;;;;;;7.90;1.10;;;14.10;99.90;;;;;;5067789;28;20032;-75
2022/11/09 10:51:52;;;;;;;10.27;1.17;;;14.30;99.90;;;;;;5067584;28;20034;-72
2022/11/09 10:54:19;;;;;;;5.95;0.90;;;14.40;99.90;;;;;;5050172;28;20372;-74
2022/11/09 10:57:05;;;;;;;8.40;1.15;;;14.70;99.90;;;;;;5067712;28;20107;-73
2022/11/09 10:59:34;;;;;;;6.80;1.08;;;15.10;99.90;;;;;;5040457;28;20039;-75
2022/11/09 11:01:59;;;;;;;7.63;1.05;;;15.90;99.90;;;;;;5048676;28;20575;-75
2022/11/09 11:04:27;;;;;;;7.45;1.02;;;15.70;99.90;;;;;;5068126;28;20170;-73
2022/11/09 11:06:54;;;;;;;7.22;1.10;;;15.00;99.90;;;;;;5067624;28;20029;-74
2022/11/09 11:09:22;;;;;;;8.65;1.20;;;14.30;99.90;;;;;;5067009;28;20402;-73
2022/11/09 11:11:47;;;;;;;5.82;1.00;;;14.10;99.90;;;;;;5067527;28;20035;-73
2022/11/09 11:14:32;;;;;;;8.43;1.38;;;13.90;99.90;;;;;;5067249;28;20029;-74
2022/11/09 11:16:58;;;;;;;9.32;1.20;;;13.80;99.90;;;;;;5049031;28;20032;-74
2022/11/09 11:19:34;;;;;;;7.90;1.10;;;13.70;99.90;;;;;;5066656;28;20695;-73
2022/11/09 11:22:26;;;;;;;6.75;1.15;;;13.60;99.90;;;;;;5066778;28;20024;-74
2022/11/09 11:25:10;;;;;;;7.93;1.38;;;13.60;99.90;;;;;;5045507;28;20066;-73
2022/11/09 11:27:59;;;;;;;9.38;1.20;;;13.40;99.90;;;;;;5066813;28;20298;-73
2022/11/09 11:30:30;;;;;;;7.32;1.30;;;13.50;99.90;;;;;;5067540;28;20024;-73
2022/11/09 11:32:57;;;;;;;8.63;1.30;;;13.60;99.90;;;;;;5075880;28;20478;-74
2022/11/09 11:35:44;;;;;;;8.45;1.40;;;13.60;99.90;;;;;;5087310;28;20033;-74
2022/11/09 11:38:12;;;;;;;6.18;1.35;;;13.60;99.90;;;;;;5059817;28;20024;-73
2022/11/09 11:41:02;;;;;;;9.00;1.30;;;13.60;99.90;;;;;;5066685;28;20115;-73
2022/11/09 11:43:59;;;;;;;10.85;1.10;;;13.80;99.90;;;;;;5066671;28;20029;-73
2022/11/09 11:46:24;;;;;;;6.15;0.93;;;13.80;99.90;;;;;;5067112;28;20560;-72
2022/11/09 11:49:08;;;;;;;8.65;1.40;;;13.80;99.90;;;;;;5066637;28;20033;-73
2022/11/09 11:51:40;;;;;;;11.88;1.73;;;13.90;99.90;;;;;;5067177;28;20029;-73
2022/11/09 11:54:41;;;;;;;8.13;1.48;;;14.10;99.90;;;;;;5048475;28;20043;-73
2022/11/09 11:57:15;;;;;;;8.23;1.23;;;14.80;99.90;;;;;;5047871;28;20115;-75
2022/11/09 12:00:01;;;;;;;7.95;1.52;;;15.00;99.90;;;;;;5064784;28;20036;-73
2022/11/09 12:02:51;;;;;;;8.82;1.35;;;15.40;99.90;;;;;;5066357;28;20603;-73
2022/11/09 12:05:50;;;;;;;7.15;1.30;;;16.20;99.90;;;;;;5067093;28;20097;-73
2022/11/09 12:08:40;;;;;;;6.25;1.17;;;15.70;99.90;;;;;;5058614;28;20108;-73
2022/11/09 12:11:44;;;;;;;11.68;1.65;;;14.90;99.90;;;;;;5067197;28;20043;-73
2022/11/09 12:14:28;;;;;;;7.93;1.15;;;14.80;99.90;;;;;;5037550;28;20043;-73
2022/11/09 12:17:28;;;;;;;13.98;1.67;;;14.40;99.90;;;;;;5066432;28;20736;-73
2022/11/09 12:20:20;;;;;;;11.27;1.15;;;14.40;99.90;;;;;;5046613;28;20112;-73
2022/11/09 12:22:53;;;;;;;8.93;1.23;;;14.50;99.90;;;;;;5028779;28;20037;-73
2022/11/09 12:25:45;;;;;;;10.63;1.38;;;14.60;99.90;;;;;;5046611;28;20056;-72
2022/11/09 12:28:48;;;;;;;6.40;1.30;;;14.80;99.90;;;;;;5054124;28;20036;-72
2022/11/09 12:31:36;;;;;;;8.40;1.00;;;15.00;99.90;;;;;;5066752;28;20036;-73
2022/11/09 12:34:33;;;;;;;9.60;1.50;;;15.10;99.90;;;;;;5066618;28;20056;-72
2022/11/09 12:37:07;;;;;;;8.50;1.77;;;15.30;99.90;;;;;;5012834;28;20551;-72
2022/11/09 12:40:13;;;;;;;9.68;1.70;;;15.30;99.90;;;;;;5066439;28;20565;-73
2022/11/09 12:42:46;;;;;;;14.55;1.60;;;15.50;99.90;;;;;;5025977;28;20174;-73
2022/11/09 12:45:34;;;;;;;9.75;1.73;;;15.60;99.90;;;;;;5066163;28;20021;-73
2022/11/09 12:48:19;;;;;;;10.35;1.63;;;15.70;99.90;;;;;;5070064;28;20020;-73
2022/11/09 12:50:45;;;;;;;11.18;2.17;;;15.70;99.90;;;;;;5052095;28;20127;-72
2022/11/09 12:53:11;;;;;;;11.50;1.52;;;15.60;99.90;;;;;;5070525;28;20712;-73
2022/11/09 12:55:55;;;;;;;8.15;1.15;;;15.60;99.90;;;;;;5069458;28;20553;-72